createdAt,value
2023-02-27T00:03:01.066Z,10.90
2023-02-27T00:09:03.679Z,16.38
2023-02-27T00:21:08.733Z,10.60
2023-02-27T00:27:11.240Z,11.07
2023-02-27T00:33:13.815Z,9.25
2023-02-27T00:39:16.940Z,11.05
2023-02-27T00:51:23.350Z,10.13
2023-02-27T00:57:25.800Z,8.80
2023-02-27T01:03:28.565Z,11.27
2023-02-27T01:09:30.777Z,9.82
2023-02-27T01:15:33.028Z,12.13
2023-02-27T01:21:35.413Z,9.68
2023-02-27T01:27:37.862Z,15.07
2023-02-27T01:33:40.524Z,15.68
2023-02-27T01:39:42.967Z,6.60
2023-02-27T01:45:49.698Z,18.38
2023-02-27T01:52:05.994Z,10.18
2023-02-27T01:58:11.548Z,20.67
2023-02-27T02:04:25.430Z,17.77
2023-02-27T02:10:28.868Z,9.65
2023-02-27T02:23:12.124Z,14.18
2023-02-27T02:36:53.415Z,16.80
2023-02-27T03:16:13.520Z,9.88
2023-02-27T03:28:40.363Z,13.15
2023-02-27T03:41:11.282Z,7.68
2023-02-27T03:59:58.527Z,7.09
2023-02-27T04:06:21.715Z,7.45
2023-02-27T04:12:40.216Z,5.85
2023-02-27T04:19:07.462Z,6.47
2023-02-27T04:25:22.623Z,7.13
2023-02-27T04:31:30.554Z,9.48
2023-02-27T04:38:02.335Z,6.82
2023-02-27T04:44:08.412Z,6.68
2023-02-27T04:50:16.339Z,11.85
2023-02-27T04:56:24.328Z,24.90
2023-02-27T05:02:36.268Z,5.63
2023-02-27T05:09:15.569Z,6.65
2023-02-27T05:15:28.794Z,10.00
2023-02-27T05:27:47.432Z,9.07
2023-02-27T05:34:13.582Z,8.32
2023-02-27T05:40:25.197Z,8.35
2023-02-27T05:46:36.411Z,13.88
2023-02-27T05:52:40.737Z,13.13
2023-02-27T05:58:48.301Z,9.93
2023-02-27T06:04:50.488Z,13.70
2023-02-27T06:10:52.981Z,11.15
2023-02-27T06:22:57.650Z,6.78
2023-02-27T06:29:00.256Z,14.10
2023-02-27T06:41:05.089Z,6.78
2023-02-27T06:53:09.666Z,8.20
2023-02-27T06:59:12.090Z,6.82
2023-02-27T07:11:17.093Z,12.13
2023-02-27T07:23:22.718Z,10.43
2023-02-27T07:29:24.900Z,7.72
2023-02-27T07:35:27.313Z,15.10
2023-02-27T07:41:31.111Z,19.35
2023-02-27T07:47:36.624Z,7.22
2023-02-27T07:59:41.040Z,9.27
2023-02-27T08:05:43.169Z,10.23
2023-02-27T08:11:47.814Z,19.27
2023-02-27T08:17:51.070Z,13.00
2023-02-27T08:23:53.224Z,6.95
2023-02-27T08:29:55.372Z,10.73
2023-02-27T08:35:58.067Z,14.63
2023-02-27T08:42:00.607Z,8.00
2023-02-27T08:48:02.793Z,13.98
2023-02-27T08:54:04.870Z,11.77
2023-02-27T09:00:08.725Z,37.55
2023-02-27T09:06:11.062Z,24.30
2023-02-27T09:12:13.675Z,13.50
2023-02-27T09:18:16.317Z,22.02
2023-02-27T09:24:20.779Z,18.60
2023-02-27T09:30:23.890Z,21.70
2023-02-27T09:36:26.495Z,19.83
2023-02-27T09:48:42.380Z,19.23
2023-02-27T09:54:44.942Z,18.13
2023-02-27T10:00:58.032Z,14.57
2023-02-27T10:13:36.883Z,22.75
2023-02-27T10:19:40.460Z,17.23
2023-02-27T10:25:48.904Z,19.02
2023-02-27T10:32:15.980Z,15.15
2023-02-27T10:38:41.593Z,22.27
2023-02-27T10:44:44.217Z,18.80
2023-02-27T10:50:54.069Z,24.27
2023-02-27T10:57:00.341Z,23.58
2023-02-27T11:03:02.633Z,25.65
2023-02-27T11:09:12.106Z,27.08
2023-02-27T11:15:17.585Z,29.42
2023-02-27T11:21:30.769Z,28.92
2023-02-27T11:27:33.887Z,30.02
2023-02-27T11:33:40.013Z,35.25
2023-02-27T11:39:50.938Z,23.05
2023-02-27T11:46:04.386Z,20.90
2023-02-27T11:52:41.974Z,26.75
2023-02-27T11:58:56.079Z,24.35
2023-02-27T12:05:17.390Z,23.63
2023-02-27T12:11:28.606Z,28.90
2023-02-27T12:17:40.442Z,28.70
2023-02-27T12:24:08.934Z,22.40
2023-02-27T12:30:20.085Z,25.70
2023-02-27T12:36:22.916Z,26.13
2023-02-27T12:42:57.947Z,25.98
2023-02-27T12:49:17.428Z,20.35
2023-02-27T12:55:27.435Z,24.35
2023-02-27T13:01:56.726Z,24.13
2023-02-27T13:08:21.595Z,26.35
2023-02-27T13:14:35.220Z,26.95
2023-02-27T13:21:05.144Z,24.05
2023-02-27T13:27:36.735Z,35.83
2023-02-27T13:33:48.935Z,30.00
2023-02-27T13:39:53.420Z,27.75
2023-02-27T13:45:58.636Z,24.05
2023-02-27T13:52:02.401Z,28.95
2023-02-27T13:58:05.918Z,33.67
2023-02-27T14:04:08.405Z,23.63
2023-02-27T14:10:11.845Z,25.42
2023-02-27T14:16:40.222Z,43.08
2023-02-27T14:23:13.560Z,33.40
2023-02-27T14:35:20.762Z,31.52
2023-02-27T14:41:34.766Z,27.25
2023-02-27T14:47:38.579Z,27.67
2023-02-27T14:53:40.805Z,24.92
2023-02-27T14:59:45.728Z,20.48
2023-02-27T15:05:49.760Z,22.42
2023-02-27T15:12:03.548Z,17.98
2023-02-27T15:18:14.421Z,16.55
2023-02-27T15:24:50.352Z,16.80
2023-02-27T15:30:55.872Z,25.00
2023-02-27T15:37:00.122Z,14.95
2023-02-27T15:43:02.779Z,18.85
2023-02-27T15:49:05.336Z,15.75
2023-02-27T15:55:15.024Z,17.33
2023-02-27T16:01:22.996Z,12.50
2023-02-27T16:07:26.933Z,16.88
2023-02-27T16:13:35.323Z,20.13
2023-02-27T16:19:41.045Z,14.50
2023-02-27T16:25:59.588Z,12.95
2023-02-27T16:34:00.145Z,10.45
2023-02-27T16:40:02.560Z,12.80
2023-02-27T16:46:05.395Z,14.02
2023-02-27T16:52:11.318Z,14.57
2023-02-27T16:58:15.820Z,15.15
2023-02-27T17:04:25.643Z,10.85
2023-02-27T17:10:29.048Z,27.33
2023-02-27T17:16:31.768Z,17.70
2023-02-27T17:28:43.945Z,9.63
2023-02-27T17:40:48.739Z,12.98
2023-02-27T17:46:51.203Z,6.05
2023-02-27T17:52:53.434Z,8.68
2023-02-27T17:58:55.845Z,11.45
2023-02-27T18:04:58.617Z,4.90
2023-02-27T18:11:01.676Z,12.35
2023-02-27T18:17:04.044Z,12.05
2023-02-27T18:23:11.805Z,9.02
2023-02-27T18:29:14.703Z,7.88
2023-02-27T18:35:17.216Z,8.80
2023-02-27T18:41:19.506Z,8.32
2023-02-27T18:47:21.669Z,9.25
2023-02-27T18:53:23.735Z,10.68
2023-02-27T18:59:25.972Z,11.13
2023-02-27T19:05:28.386Z,8.20
2023-02-27T19:11:35.753Z,6.43
2023-02-27T19:17:38.237Z,8.10
2023-02-27T19:23:40.583Z,8.52
2023-02-27T19:29:43.157Z,6.75
2023-02-27T19:41:48.065Z,5.60
2023-02-27T19:47:50.300Z,7.68
2023-02-27T19:53:54.052Z,4.10
2023-02-27T19:59:56.209Z,5.20
2023-02-27T20:05:58.685Z,4.55
2023-02-27T20:12:01.773Z,11.65
2023-02-27T20:18:03.928Z,7.07
2023-02-27T20:24:06.426Z,15.27
2023-02-27T20:30:09.320Z,3.67
2023-02-27T20:36:12.299Z,15.45
2023-02-27T20:42:17.372Z,9.40
2023-02-27T20:48:19.548Z,3.95
2023-02-27T20:54:21.786Z,7.82
2023-02-27T21:00:25.682Z,6.70
2023-02-27T21:06:28.012Z,4.60
2023-02-27T21:12:30.538Z,4.43
2023-02-27T21:18:32.914Z,7.50
2023-02-27T21:24:35.121Z,6.88
2023-02-27T21:30:37.821Z,10.93
2023-02-27T21:36:42.585Z,5.25
2023-02-27T21:42:45.018Z,7.10
2023-02-27T21:48:47.156Z,5.85
2023-02-27T21:54:50.690Z,8.13
2023-02-27T22:00:53.329Z,8.05
2023-02-27T22:12:57.880Z,9.07
2023-02-27T22:19:00.186Z,9.93
2023-02-27T22:25:02.773Z,7.88
2023-02-27T22:37:20.173Z,7.73
2023-02-27T22:43:23.060Z,10.60
2023-02-27T22:49:25.123Z,10.30
2023-02-27T22:55:27.423Z,10.00
2023-02-27T23:01:32.599Z,14.82
2023-02-27T23:07:35.077Z,14.27
2023-02-27T23:13:37.133Z,11.48
2023-02-27T23:19:39.236Z,15.18
2023-02-27T23:25:41.678Z,18.42
2023-02-27T23:31:43.983Z,13.32
2023-02-27T23:37:46.325Z,16.88
2023-02-27T23:44:11.197Z,14.57
2023-02-27T23:50:13.420Z,14.88
2023-02-27T23:56:18.675Z,17.02
